createdAt,value
2018-05-16T00:00:01.740Z,7.80
2018-05-16T00:02:29.172Z,7.97
2018-05-16T00:04:57.003Z,8.20
2018-05-16T00:07:24.440Z,7.23
2018-05-16T00:09:52.651Z,9.33
2018-05-16T00:12:20.086Z,7.87
2018-05-16T00:14:47.912Z,8.30
2018-05-16T00:17:15.348Z,8.43
2018-05-16T00:19:43.172Z,8.77
2018-05-16T00:22:11.380Z,9.23
2018-05-16T00:24:39.957Z,9.40
2018-05-16T00:27:07.388Z,9.27
2018-05-16T00:29:35.970Z,9.30
2018-05-16T00:32:03.495Z,9.93
2018-05-16T00:34:31.733Z,9.60
2018-05-16T00:36:59.592Z,11.10
2018-05-16T00:39:27.420Z,11.70
2018-05-16T00:41:55.628Z,11.17
2018-05-16T00:44:23.476Z,10.80
2018-05-16T00:46:50.923Z,10.57
2018-05-16T00:49:19.206Z,11.30
2018-05-16T00:51:46.708Z,11.40
2018-05-16T00:54:14.491Z,12.70
2018-05-16T00:56:41.913Z,13.00
2018-05-16T00:59:09.382Z,11.60
2018-05-16T01:01:36.852Z,13.33
2018-05-16T01:04:05.059Z,12.60
2018-05-16T01:06:32.513Z,12.50
2018-05-16T01:08:59.932Z,13.30
2018-05-16T01:11:27.785Z,14.47
2018-05-16T01:13:55.968Z,13.43
2018-05-16T01:16:23.416Z,13.97
2018-05-16T01:18:50.872Z,13.20
2018-05-16T01:21:18.313Z,11.53
2018-05-16T01:23:46.515Z,11.70
2018-05-16T01:26:13.957Z,10.40
2018-05-16T01:28:41.416Z,10.90
2018-05-16T01:31:08.849Z,11.17
2018-05-16T01:33:36.285Z,9.90
2018-05-16T01:36:03.743Z,11.40
2018-05-16T01:38:31.953Z,9.10
2018-05-16T01:40:59.397Z,8.80
2018-05-16T01:43:28.208Z,8.90
2018-05-16T01:45:56.401Z,9.57
2018-05-16T01:48:24.242Z,8.47
2018-05-16T01:50:51.680Z,9.13
2018-05-16T01:53:19.109Z,8.50
2018-05-16T01:55:46.967Z,8.50
2018-05-16T01:58:14.788Z,9.77
2018-05-16T02:00:42.245Z,9.13
2018-05-16T02:03:10.446Z,10.00
2018-05-16T02:05:37.882Z,8.90
2018-05-16T02:08:05.385Z,10.50
2018-05-16T02:10:32.819Z,9.87
2018-05-16T02:13:00.274Z,9.77
2018-05-16T02:15:28.485Z,10.90
2018-05-16T02:17:55.941Z,10.93
2018-05-16T02:20:23.381Z,10.50
2018-05-16T02:22:51.590Z,9.90
2018-05-16T02:25:19.055Z,11.50
2018-05-16T02:27:46.494Z,10.90
2018-05-16T02:30:13.956Z,11.20
2018-05-16T02:32:41.402Z,11.23
2018-05-16T02:35:08.849Z,12.00
2018-05-16T02:37:36.296Z,11.30
2018-05-16T02:40:03.765Z,12.10
2018-05-16T02:42:31.206Z,10.27
2018-05-16T02:44:59.422Z,10.20
2018-05-16T02:47:26.963Z,11.20
2018-05-16T02:49:55.081Z,11.17
2018-05-16T02:52:22.510Z,11.90
2018-05-16T02:54:50.370Z,11.40
2018-05-16T02:57:18.205Z,11.73
2018-05-16T02:59:45.658Z,11.77
2018-05-16T03:02:14.633Z,11.90
2018-05-16T03:04:42.074Z,11.37
2018-05-16T03:07:09.915Z,11.77
2018-05-16T03:09:37.369Z,12.47
2018-05-16T03:12:04.834Z,12.93
2018-05-16T03:14:33.060Z,14.00
2018-05-16T03:17:01.631Z,12.67
2018-05-16T03:19:29.454Z,12.23
2018-05-16T03:21:56.909Z,13.33
2018-05-16T03:24:25.389Z,13.23
2018-05-16T03:26:52.845Z,12.73
2018-05-16T03:29:20.283Z,12.60
2018-05-16T03:31:48.508Z,12.30
2018-05-16T03:34:17.305Z,12.80
2018-05-16T03:36:44.752Z,13.63
2018-05-16T03:39:12.207Z,13.30
2018-05-16T03:41:40.421Z,13.90
2018-05-16T03:44:07.863Z,13.00
2018-05-16T03:46:35.326Z,12.87
2018-05-16T03:49:04.272Z,14.20
2018-05-16T03:51:31.721Z,14.33
2018-05-16T03:53:59.168Z,13.57
2018-05-16T03:56:27.375Z,14.90
2018-05-16T03:59:06.635Z,15.60
2018-05-16T04:01:46.770Z,15.47
2018-05-16T04:04:17.125Z,14.20
2018-05-16T04:06:44.548Z,15.00
2018-05-16T04:09:12.760Z,14.97
2018-05-16T04:11:40.988Z,15.40
2018-05-16T04:14:08.825Z,14.63
2018-05-16T04:16:37.038Z,13.30
2018-05-16T04:19:04.504Z,12.63
2018-05-16T04:21:31.958Z,13.03
2018-05-16T04:23:59.405Z,15.70
2018-05-16T04:26:26.861Z,14.50
2018-05-16T04:28:54.724Z,14.70
2018-05-16T04:31:22.150Z,14.90
2018-05-16T04:33:50.369Z,15.03
2018-05-16T04:36:18.953Z,15.17
2018-05-16T04:38:46.800Z,16.07
2018-05-16T04:41:14.274Z,18.07
2018-05-16T04:43:42.506Z,17.47
2018-05-16T04:46:10.342Z,15.80
2018-05-16T04:48:38.576Z,18.60
2018-05-16T04:51:06.785Z,18.17
2018-05-16T04:53:34.608Z,17.43
2018-05-16T04:56:02.069Z,17.97
2018-05-16T04:58:29.514Z,18.83
2018-05-16T05:00:57.054Z,16.90
2018-05-16T05:03:24.440Z,15.30
2018-05-16T05:05:52.270Z,15.63
2018-05-16T05:08:19.728Z,15.43
2018-05-16T05:10:47.185Z,15.33
2018-05-16T05:13:14.631Z,15.60
2018-05-16T05:15:42.463Z,14.80
2018-05-16T05:18:09.924Z,15.27
2018-05-16T05:20:37.360Z,14.07
2018-05-16T05:23:04.805Z,16.33
2018-05-16T05:25:32.261Z,17.87
2018-05-16T05:27:59.710Z,16.17
2018-05-16T05:30:27.920Z,18.23
2018-05-16T05:32:55.373Z,18.90
2018-05-16T05:35:23.214Z,17.10
2018-05-16T05:37:50.658Z,16.03
2018-05-16T05:40:18.203Z,16.23
2018-05-16T05:42:45.638Z,14.87
2018-05-16T05:45:13.488Z,15.83
2018-05-16T05:47:41.955Z,13.83
2018-05-16T05:50:09.399Z,12.30
2018-05-16T05:52:37.249Z,13.07
2018-05-16T05:55:05.466Z,12.10
2018-05-16T05:57:32.908Z,13.50
2018-05-16T06:00:01.823Z,12.00
2018-05-16T06:02:29.186Z,13.30
2018-05-16T06:04:57.406Z,14.97
2018-05-16T06:07:24.865Z,13.07
2018-05-16T06:09:52.322Z,13.50
2018-05-16T06:12:19.782Z,13.10
2018-05-16T06:14:47.989Z,13.43
2018-05-16T06:17:15.450Z,12.93
2018-05-16T06:19:43.705Z,12.70
2018-05-16T06:22:11.110Z,12.63
2018-05-16T06:24:38.569Z,13.73
2018-05-16T06:27:06.086Z,13.13
2018-05-16T06:29:33.849Z,12.10
2018-05-16T06:32:01.336Z,12.80
2018-05-16T06:34:28.781Z,12.10
2018-05-16T06:36:56.238Z,12.50
2018-05-16T06:39:24.457Z,12.23
2018-05-16T06:41:51.945Z,12.47
2018-05-16T06:44:20.532Z,11.73
2018-05-16T06:46:49.126Z,11.77
2018-05-16T06:49:16.572Z,11.70
2018-05-16T06:51:45.225Z,11.13
2018-05-16T06:54:13.429Z,12.80
2018-05-16T06:56:40.878Z,11.63
2018-05-16T06:59:08.325Z,10.10
2018-05-16T07:01:36.557Z,9.03
2018-05-16T07:04:04.795Z,10.80
2018-05-16T07:06:33.108Z,10.07
2018-05-16T07:09:00.575Z,10.67
2018-05-16T07:11:28.025Z,11.07
2018-05-16T07:13:56.231Z,11.20
2018-05-16T07:16:23.701Z,10.63
2018-05-16T07:18:51.138Z,9.13
2018-05-16T07:21:19.348Z,9.27
2018-05-16T07:23:46.805Z,9.53
2018-05-16T07:26:14.245Z,10.20
2018-05-16T07:28:41.694Z,8.07
2018-05-16T07:31:09.158Z,7.90
2018-05-16T07:33:37.385Z,9.63
2018-05-16T07:36:05.596Z,9.90
2018-05-16T07:38:33.089Z,10.80
2018-05-16T07:41:00.555Z,10.77
2018-05-16T07:43:28.760Z,9.77
2018-05-16T07:45:56.217Z,8.27
2018-05-16T07:48:23.746Z,8.43
2018-05-16T07:50:51.193Z,8.90
2018-05-16T07:53:19.417Z,6.83
2018-05-16T07:55:46.857Z,5.83
2018-05-16T07:58:14.307Z,5.73
2018-05-16T08:00:42.528Z,6.20
2018-05-16T08:03:09.978Z,6.90
2018-05-16T08:05:37.397Z,7.90
2018-05-16T08:08:04.849Z,6.60
2018-05-16T08:10:33.640Z,7.93
2018-05-16T08:13:02.223Z,8.23
2018-05-16T08:15:29.687Z,7.83
2018-05-16T08:17:57.135Z,8.70
2018-05-16T08:20:25.350Z,7.90
2018-05-16T08:22:52.797Z,7.83
2018-05-16T08:25:20.246Z,7.30
2018-05-16T08:27:49.225Z,9.03
2018-05-16T08:30:16.676Z,8.10
2018-05-16T08:32:44.138Z,8.67
2018-05-16T08:35:11.587Z,9.93
2018-05-16T08:37:39.042Z,9.73
2018-05-16T08:40:06.491Z,8.60
2018-05-16T08:42:34.702Z,9.27
2018-05-16T08:45:02.219Z,8.90
2018-05-16T08:47:29.985Z,9.83
2018-05-16T08:49:58.189Z,9.87
2018-05-16T08:52:25.636Z,9.77
2018-05-16T08:54:53.844Z,9.30
2018-05-16T08:57:21.264Z,8.23
2018-05-16T08:59:48.719Z,9.33
2018-05-16T09:02:16.181Z,8.10
2018-05-16T09:04:44.028Z,8.67
2018-05-16T09:07:11.853Z,9.77
2018-05-16T09:09:39.298Z,7.50
2018-05-16T09:12:07.535Z,9.70
2018-05-16T09:14:34.988Z,8.60
2018-05-16T09:17:02.456Z,7.93
2018-05-16T09:19:30.297Z,8.20
2018-05-16T09:21:58.505Z,7.70
2018-05-16T09:24:25.984Z,7.47
2018-05-16T09:26:53.422Z,7.93
2018-05-16T09:29:20.871Z,8.17
2018-05-16T09:31:49.083Z,8.03
2018-05-16T09:34:16.536Z,9.33
2018-05-16T09:36:45.347Z,9.77
2018-05-16T09:39:13.716Z,8.80
2018-05-16T09:41:41.495Z,8.40
2018-05-16T09:44:09.945Z,8.73
2018-05-16T09:46:37.456Z,8.80
2018-05-16T09:49:11.256Z,8.57
2018-05-16T09:51:38.738Z,8.53
2018-05-16T09:54:06.942Z,8.07
2018-05-16T09:56:34.378Z,7.97
2018-05-16T09:59:01.854Z,7.70
2018-05-16T10:01:30.057Z,7.93
2018-05-16T10:03:57.911Z,8.33
2018-05-16T10:06:25.353Z,7.70
2018-05-16T10:08:52.831Z,6.77
2018-05-16T10:11:20.286Z,6.20
2018-05-16T10:13:47.725Z,6.80
2018-05-16T10:16:15.190Z,8.13
2018-05-16T10:18:42.624Z,6.73
2018-05-16T10:21:10.886Z,6.57
2018-05-16T10:23:38.383Z,7.13
2018-05-16T10:26:05.765Z,7.70
2018-05-16T10:28:33.233Z,7.40
2018-05-16T10:31:00.698Z,7.10
2018-05-16T10:33:28.922Z,6.97
2018-05-16T10:35:56.374Z,7.27
2018-05-16T10:38:23.819Z,7.30
2018-05-16T10:40:51.655Z,8.03
2018-05-16T10:43:19.095Z,7.00
2018-05-16T10:45:46.535Z,6.50
2018-05-16T10:48:13.975Z,6.67
2018-05-16T10:50:41.433Z,6.57
2018-05-16T10:53:08.906Z,6.70
2018-05-16T10:55:36.366Z,6.70
2018-05-16T10:58:03.839Z,8.00
2018-05-16T11:00:31.330Z,9.80
2018-05-16T11:02:59.558Z,10.30
2018-05-16T11:05:27.046Z,13.80
2018-05-16T11:07:54.590Z,14.03
2018-05-16T11:10:22.043Z,15.40
2018-05-16T11:12:49.503Z,14.90
2018-05-16T11:15:16.976Z,14.47
2018-05-16T11:17:44.428Z,15.60
2018-05-16T11:20:12.750Z,17.90
2018-05-16T11:22:40.968Z,17.07
2018-05-16T11:25:08.837Z,15.83
2018-05-16T11:27:36.290Z,16.30
2018-05-16T11:30:03.759Z,16.13
2018-05-16T11:32:31.625Z,17.50
2018-05-16T11:34:59.090Z,17.37
2018-05-16T11:37:31.112Z,16.60
2018-05-16T11:39:58.695Z,19.20
2018-05-16T11:47:59.565Z,16.07
2018-05-16T11:50:39.612Z,15.83
2018-05-16T11:53:11.832Z,13.80
2018-05-16T11:55:42.108Z,12.30
2018-05-16T11:58:10.505Z,12.10
2018-05-16T12:00:41.865Z,10.93
2018-05-16T12:03:12.036Z,11.00
2018-05-16T12:05:41.711Z,12.63
2018-05-16T12:08:09.289Z,13.60
2018-05-16T12:10:36.793Z,12.33
2018-05-16T12:13:04.267Z,13.50
2018-05-16T12:15:33.242Z,14.00
2018-05-16T12:21:25.234Z,16.40
2018-05-16T12:23:54.169Z,15.50
2018-05-16T12:26:23.813Z,14.70
2018-05-16T12:28:55.781Z,16.47
2018-05-16T12:31:24.154Z,14.73
2018-05-16T12:33:51.610Z,13.03
2018-05-16T12:36:19.077Z,11.00
2018-05-16T12:38:46.722Z,10.23
2018-05-16T12:41:15.879Z,11.07
2018-05-16T12:43:46.622Z,9.33
2018-05-16T12:48:49.871Z,8.30
2018-05-16T12:51:17.330Z,9.90
2018-05-16T12:53:45.546Z,7.60
2018-05-16T12:56:13.007Z,7.53
2018-05-16T12:58:40.861Z,7.30
2018-05-16T13:01:09.115Z,7.37
2018-05-16T13:03:36.639Z,7.73
2018-05-16T13:06:04.111Z,9.17
2018-05-16T13:08:31.673Z,8.03
2018-05-16T13:10:59.147Z,7.40
2018-05-16T13:13:26.686Z,7.97
2018-05-16T13:15:54.913Z,7.30
2018-05-16T13:18:22.378Z,7.80
2018-05-16T13:20:49.971Z,9.37
2018-05-16T13:23:17.431Z,8.23
2018-05-16T13:25:45.318Z,7.73
2018-05-16T13:28:12.766Z,6.40
2018-05-16T13:30:40.210Z,5.63
2018-05-16T13:33:08.442Z,5.20
2018-05-16T13:35:35.960Z,5.07
2018-05-16T13:38:03.787Z,4.60
2018-05-16T13:40:31.242Z,5.57
2018-05-16T13:42:58.709Z,4.53
2018-05-16T13:45:26.201Z,6.07
2018-05-16T13:47:53.663Z,4.93
2018-05-16T13:50:22.454Z,6.10
2018-05-16T13:52:49.905Z,5.57
2018-05-16T13:55:17.362Z,5.70
2018-05-16T13:57:46.308Z,4.60
2018-05-16T14:00:14.583Z,5.37
2018-05-16T14:02:43.112Z,5.33
2018-05-16T14:05:11.901Z,5.40
2018-05-16T14:07:39.380Z,6.37
2018-05-16T14:10:07.241Z,5.50
2018-05-16T14:12:34.703Z,5.50
2018-05-16T14:15:02.161Z,6.10
2018-05-16T14:17:29.634Z,5.47
2018-05-16T14:19:57.151Z,6.20
2018-05-16T14:22:25.704Z,6.80
2018-05-16T14:24:53.138Z,6.30
2018-05-16T14:27:20.624Z,6.07
2018-05-16T14:29:48.318Z,5.47
2018-05-16T14:32:16.164Z,6.13
2018-05-16T14:34:44.037Z,6.27
2018-05-16T14:37:12.841Z,5.90
2018-05-16T14:39:40.308Z,5.73
2018-05-16T14:42:08.153Z,5.67
2018-05-16T14:44:37.010Z,6.93
2018-05-16T14:47:04.474Z,5.73
2018-05-16T14:49:32.742Z,6.20
2018-05-16T14:52:00.604Z,6.47
2018-05-16T14:54:28.079Z,5.90
2018-05-16T14:56:56.710Z,5.70
2018-05-16T14:59:24.167Z,5.50
2018-05-16T15:01:52.398Z,5.83
2018-05-16T15:04:20.236Z,5.60
2018-05-16T15:06:47.695Z,5.47
2018-05-16T15:09:15.136Z,5.67
2018-05-16T15:11:42.607Z,5.33
2018-05-16T15:14:10.058Z,5.50
2018-05-16T15:16:38.273Z,5.37
2018-05-16T15:19:06.131Z,5.57
2018-05-16T15:21:33.578Z,5.07
2018-05-16T15:24:01.804Z,6.10
2018-05-16T15:26:29.263Z,6.00
2018-05-16T15:28:57.469Z,5.03
2018-05-16T15:31:24.923Z,5.50
2018-05-16T15:33:52.406Z,5.00
2018-05-16T15:36:19.937Z,5.23
2018-05-16T15:38:47.362Z,5.17
2018-05-16T15:41:15.206Z,5.40
2018-05-16T15:43:42.647Z,5.50
2018-05-16T15:46:10.098Z,4.97
2018-05-16T15:48:38.322Z,5.37
2018-05-16T15:51:05.775Z,4.73
2018-05-16T15:53:33.238Z,5.17
2018-05-16T15:56:00.711Z,4.83
2018-05-16T15:58:28.482Z,5.13
2018-05-16T16:00:56.570Z,5.10
2018-05-16T16:03:24.422Z,5.50
2018-05-16T16:05:52.634Z,5.93
2018-05-16T16:08:21.233Z,6.07
2018-05-16T16:10:49.810Z,5.50
2018-05-16T16:13:17.294Z,5.67
2018-05-16T16:15:44.738Z,6.80
2018-05-16T16:18:12.193Z,6.10
2018-05-16T16:20:39.649Z,5.97
2018-05-16T16:23:07.084Z,6.83
2018-05-16T16:25:35.154Z,7.17
2018-05-16T16:28:02.607Z,6.23
2018-05-16T16:30:30.460Z,8.10
2018-05-16T16:32:58.681Z,7.17
2018-05-16T16:35:26.537Z,7.60
2018-05-16T16:37:53.984Z,9.17
2018-05-16T16:40:21.422Z,8.50
2018-05-16T16:42:48.882Z,6.87
2018-05-16T16:45:17.090Z,8.63
2018-05-16T16:47:44.548Z,6.73
2018-05-16T16:50:12.102Z,8.43
2018-05-16T16:52:40.951Z,8.13
2018-05-16T16:55:09.174Z,9.07
2018-05-16T16:57:37.980Z,8.43
2018-05-16T17:00:05.503Z,11.43
2018-05-16T17:02:32.990Z,9.17
2018-05-16T17:05:00.475Z,10.30
2018-05-16T17:07:27.937Z,11.30
2018-05-16T17:09:55.394Z,11.73
2018-05-16T17:12:23.485Z,11.10
2018-05-16T17:14:51.381Z,11.07
2018-05-16T17:17:18.870Z,11.93
2018-05-16T17:19:46.592Z,11.43
2018-05-16T17:22:14.118Z,11.20
2018-05-16T17:24:41.591Z,12.90
2018-05-16T17:27:10.193Z,11.40
2018-05-16T17:29:37.668Z,12.00
2018-05-16T17:32:05.195Z,12.13
2018-05-16T17:34:33.468Z,11.30
2018-05-16T17:37:02.289Z,10.87
2018-05-16T17:39:30.502Z,11.40
2018-05-16T17:41:57.966Z,11.77
2018-05-16T17:44:25.460Z,11.13
2018-05-16T17:46:54.076Z,12.03
2018-05-16T17:49:21.551Z,13.30
2018-05-16T17:51:49.010Z,13.60
2018-05-16T17:54:16.482Z,13.23
2018-05-16T17:56:43.949Z,13.43
2018-05-16T17:59:11.418Z,14.40
2018-05-16T18:01:40.039Z,15.50
2018-05-16T18:04:07.517Z,14.53
2018-05-16T18:06:35.068Z,17.87
2018-05-16T18:09:02.867Z,18.20
2018-05-16T18:11:31.665Z,18.77
2018-05-16T18:14:11.800Z,20.00
2018-05-16T18:16:51.146Z,20.80
2018-05-16T18:19:18.603Z,18.90
2018-05-16T18:21:46.049Z,18.97
2018-05-16T18:24:15.374Z,21.67
2018-05-16T18:26:43.606Z,28.80
2018-05-16T18:29:11.466Z,22.37
2018-05-16T18:31:38.937Z,22.87
2018-05-16T18:34:07.204Z,22.97
2018-05-16T18:36:34.670Z,23.80
2018-05-16T18:39:02.526Z,21.57
2018-05-16T18:41:30.753Z,25.17
2018-05-16T18:44:00.346Z,21.70
2018-05-16T18:46:27.810Z,25.10
2018-05-16T18:48:56.080Z,25.20
2018-05-16T18:51:23.529Z,23.10
2018-05-16T18:53:51.399Z,21.60
2018-05-16T18:56:18.851Z,22.40
2018-05-16T18:58:46.331Z,23.47
2018-05-16T19:01:13.794Z,25.40
2018-05-16T19:03:41.256Z,21.77
2018-05-16T19:06:08.750Z,22.40
2018-05-16T19:08:36.226Z,19.80
2018-05-16T19:11:03.679Z,18.33
2018-05-16T19:13:31.130Z,19.23
2018-05-16T19:15:58.582Z,21.23
2018-05-16T19:18:26.204Z,24.17
2018-05-16T19:20:54.458Z,24.47
2018-05-16T19:23:23.232Z,24.80
2018-05-16T19:25:50.709Z,24.70
2018-05-16T19:28:18.184Z,22.10
2018-05-16T19:30:47.061Z,21.50
2018-05-16T19:33:15.338Z,23.10
2018-05-16T19:35:43.572Z,21.40
2018-05-16T19:38:12.254Z,20.97
2018-05-16T19:40:40.565Z,22.07
2018-05-16T19:43:08.709Z,19.80
2018-05-16T19:45:36.950Z,19.00
2018-05-16T19:48:05.797Z,21.13
2018-05-16T19:50:33.255Z,22.03
2018-05-16T19:53:00.713Z,19.37
2018-05-16T19:55:28.227Z,21.53
2018-05-16T19:57:55.706Z,21.37
2018-05-16T20:00:23.156Z,24.97
2018-05-16T20:02:50.599Z,23.07
2018-05-16T20:05:18.057Z,20.83
2018-05-16T20:07:46.283Z,21.37
2018-05-16T20:10:13.782Z,22.47
2018-05-16T20:12:41.226Z,20.83
2018-05-16T20:15:09.454Z,19.50
2018-05-16T20:17:37.699Z,19.87
2018-05-16T20:20:05.168Z,22.30
2018-05-16T20:22:33.026Z,21.20
2018-05-16T20:25:01.623Z,18.80
2018-05-16T20:27:29.081Z,19.40
2018-05-16T20:29:56.526Z,19.93
2018-05-16T20:32:24.040Z,20.90
2018-05-16T20:34:51.531Z,20.27
2018-05-16T20:37:18.974Z,21.63
2018-05-16T20:39:46.425Z,21.17
2018-05-16T20:42:14.306Z,23.77
2018-05-16T20:44:41.767Z,22.00
2018-05-16T20:47:09.217Z,23.83
2018-05-16T20:49:36.674Z,21.50
2018-05-16T20:52:04.165Z,22.60
2018-05-16T20:54:31.836Z,22.90
2018-05-16T20:57:00.087Z,22.57
2018-05-16T20:59:27.529Z,24.87
2018-05-16T21:01:54.986Z,24.70
2018-05-16T21:04:22.444Z,23.60
2018-05-16T21:06:50.702Z,25.50
2018-05-16T21:09:18.149Z,24.97
2018-05-16T21:11:46.444Z,22.17
2018-05-16T21:14:14.670Z,22.47
2018-05-16T21:16:42.126Z,20.07
2018-05-16T21:19:09.591Z,21.10
2018-05-16T21:21:37.038Z,22.50
2018-05-16T21:24:05.254Z,19.87
2018-05-16T21:26:33.544Z,20.00
2018-05-16T21:29:00.994Z,21.27
2018-05-16T21:31:29.506Z,21.50
2018-05-16T21:33:56.975Z,19.10
2018-05-16T21:36:25.546Z,17.37
2018-05-16T21:38:53.437Z,19.67
2018-05-16T21:41:20.908Z,17.87
2018-05-16T21:43:48.376Z,14.20
2018-05-16T21:46:15.853Z,15.70
2018-05-16T21:48:43.305Z,15.10
2018-05-16T21:51:10.758Z,17.73
2018-05-16T21:53:38.253Z,16.07
2018-05-16T21:56:05.711Z,17.23
2018-05-16T21:58:33.159Z,17.03
2018-05-16T22:01:02.005Z,19.60
2018-05-16T22:03:30.788Z,17.63
2018-05-16T22:05:58.270Z,20.40
2018-05-16T22:08:26.119Z,20.53
2018-05-16T22:10:53.588Z,19.03
2018-05-16T22:13:21.466Z,19.40
2018-05-16T22:15:50.091Z,18.30
2018-05-16T22:18:17.561Z,20.03
2018-05-16T22:20:45.039Z,20.83
2018-05-16T22:23:12.887Z,22.13
2018-05-16T22:25:40.358Z,22.50
2018-05-16T22:28:07.869Z,23.90
2018-05-16T22:30:41.193Z,22.37
2018-05-16T22:33:15.726Z,22.17
2018-05-16T22:35:49.662Z,24.83
2018-05-16T22:38:23.239Z,22.67
2018-05-16T22:40:56.377Z,23.33
2018-05-16T22:43:23.869Z,21.23
2018-05-16T22:45:56.313Z,21.07
2018-05-16T22:48:24.227Z,21.80
2018-05-16T22:50:51.677Z,22.30
2018-05-16T22:53:19.141Z,22.00
2018-05-16T22:55:47.385Z,20.73
2018-05-16T22:58:15.748Z,21.30
2018-05-16T23:00:44.582Z,21.93
2018-05-16T23:03:12.054Z,22.50
2018-05-16T23:05:39.962Z,20.80
2018-05-16T23:08:07.811Z,22.67
2018-05-16T23:10:35.270Z,21.27
2018-05-16T23:13:02.779Z,19.50
2018-05-16T23:15:31.743Z,20.17
2018-05-16T23:17:59.235Z,19.03
2018-05-16T23:20:26.690Z,17.67
2018-05-16T23:22:54.165Z,19.63
2018-05-16T23:25:21.604Z,18.43
2018-05-16T23:27:49.055Z,18.23
2018-05-16T23:30:16.519Z,17.60
2018-05-16T23:32:44.750Z,19.43
2018-05-16T23:35:12.243Z,19.23
2018-05-16T23:37:40.470Z,17.60
2018-05-16T23:40:07.931Z,18.80
2018-05-16T23:42:35.409Z,20.30
2018-05-16T23:45:02.874Z,18.73
2018-05-16T23:47:30.346Z,18.30
2018-05-16T23:49:57.821Z,21.10
2018-05-16T23:52:25.310Z,17.90
2018-05-16T23:54:52.820Z,18.17
2018-05-16T23:57:21.054Z,17.27
2018-05-16T23:59:48.560Z,16.30
